Date,TemperatureHighF,TemperatureAvgF,TemperatureLowF,DewpointHighF,DewpointAvgF,DewpointLowF,HumidityHigh,HumidityAvg,HumidityLow,PressureMaxIn,PressureMinIn,WindSpeedMaxMPH,WindSpeedAvgMPH,GustSpeedMaxMPH,PrecipitationSumIn
2013-1-1,66.5,55.8,48.1,64.4,53.7,43.9,94,93,88,30.09,29.86,20,5,20,2.40
2013-1-2,48.1,45.0,42.2,44.4,42.0,39.5,93,89,86,30.19,30.05,17,4,17,0.04
2013-1-3,54.0,45.2,39.6,39.8,37.9,34.7,92,77,49,30.33,30.16,15,3,16,0.00
2013-1-4,48.2,45.7,42.4,38.6,36.5,34.5,77,70,62,30.42,30.23,14,3,15,0.02
2013-1-5,46.9,44.6,43.2,43.2,41.7,37.3,94,89,70,30.28,30.14,11,2,12,0.61
2013-1-6,57.5,48.7,42.3,46.0,43.3,38.9,94,82,62,30.28,30.13,17,4,17,0.00
2013-1-7,57.4,48.5,39.1,45.2,41.4,37.1,93,78,57,30.27,30.05,14,2,14,0.01
2013-1-8,64.3,58.4,52.1,62.0,55.2,45.1,93,89,73,30.05,29.92,22,7,28,0.24
2013-1-9,68.5,64.6,62.4,66.7,62.6,60.0,94,93,91,30.07,29.89,23,6,23,2.69
2013-1-10,65.4,61.7,52.1,63.5,59.8,50.2,96,93,84,30.05,29.90,17,1,17,0.87
2013-1-11,70.8,60.3,46.9,67.1,55.3,45.5,96,85,56,30.09,29.90,9,1,10,0.04
2013-1-12,74.5,70.9,68.9,71.2,68.7,67.1,95,93,88,29.95,29.72,33,9,33,0.02
2013-1-13,72.0,55.0,45.4,69.2,52.8,43.0,96,92,87,30.03,29.72,30,8,33,0.13
2013-1-14,46.5,41.8,38.5,44.1,39.2,36.4,94,90,85,30.09,29.96,19,6,21,0.02
2013-1-15,40.9,37.8,35.6,37.9,35.9,34.0,94,93,88,30.01,29.89,16,5,18,0.29
2013-1-16,45.8,38.2,33.8,39.0,35.3,32.0,94,89,74,30.13,29.97,18,3,18,0.03
2013-1-17,59.0,43.8,31.5,39.2,33.9,28.4,94,71,41,30.36,30.12,18,2,18,0.00
2013-1-18,59.2,45.2,34.5,39.7,34.0,14.3,94,70,17,30.51,30.27,13,1,13,0.00
2013-1-19,62.9,44.6,33.4,49.5,40.1,31.6,95,85,51,30.33,30.17,13,0,13,0.01
2013-1-20,67.4,50.7,38.7,53.9,44.7,37.1,95,82,49,30.31,30.06,12,0,13,0.00
2013-1-21,68.6,53.7,41.8,54.6,46.8,40.2,99,80,49,30.27,30.06,6,0,9,0.01
2013-1-22,66.4,52.0,41.5,50.7,44.8,37.6,93,78,50,30.35,30.15,11,2,12,0.00
2013-1-23,68.7,56.5,42.5,59.2,52.0,40.9,96,86,67,30.38,30.21,20,3,20,0.00
2013-1-24,70.8,61.9,52.4,64.0,58.6,50.4,95,89,77,30.30,30.14,19,3,19,0.00
2013-1-25,73.9,64.3,55.4,64.0,59.8,53.6,94,86,64,30.24,30.09,21,4,21,0.01
2013-1-26,74.0,63.3,54.8,65.7,58.7,53.1,98,86,63,30.26,30.10,17,3,18,0.01
2013-1-27,73.5,66.7,58.8,65.0,61.7,56.5,93,84,72,30.22,30.09,24,7,24,0.00
2013-1-28,73.5,69.0,66.1,68.3,65.6,63.4,94,89,82,30.17,30.01,22,7,24,0.00
2013-1-29,74.9,71.0,68.0,70.3,68.4,66.2,94,92,84,30.03,29.67,30,14,31,0.00
2013-1-30,71.8,54.7,40.0,69.3,41.1,31.4,93,63,36,30.12,29.68,32,7,32,0.12
2013-1-31,61.2,48.4,34.8,42.0,35.3,24.9,94,65,28,30.34,30.10,21,2,21,0.00